createdAt,value
2022-07-27T00:02:18.466Z,98983
2022-07-27T00:07:53.408Z,98975.2
2022-07-27T00:13:28.524Z,98970.5
2022-07-27T00:19:25.321Z,98963.3
2022-07-27T00:24:57.888Z,98955.8
2022-07-27T00:30:33.609Z,98953.1
2022-07-27T00:36:08.495Z,98945.6
2022-07-27T00:41:43.651Z,98943.5
2022-07-27T00:47:18.355Z,98936.8
2022-07-27T00:52:53.001Z,98936.4
2022-07-27T00:58:28.211Z,98922.7
2022-07-27T01:04:04.999Z,98917.9
2022-07-27T01:09:39.754Z,98910.5
2022-07-27T01:15:15.089Z,98902.6
2022-07-27T01:20:50.389Z,98898.4
2022-07-27T01:26:27.135Z,98896.7
2022-07-27T01:32:01.946Z,98892.1
2022-07-27T01:37:36.693Z,98889.9
2022-07-27T01:43:23.109Z,98889.8
2022-07-27T01:48:58.795Z,98891
2022-07-27T01:54:34.653Z,98890.3
2022-07-27T02:00:09.579Z,98893.8
2022-07-27T02:05:44.876Z,98887
2022-07-27T02:11:20.965Z,98883.3
2022-07-27T02:17:19.364Z,98880.2
2022-07-27T02:22:56.734Z,98879.2
2022-07-27T02:28:31.442Z,98881.8
2022-07-27T02:34:06.343Z,98882.6
2022-07-27T02:39:41.453Z,98880.6
2022-07-27T02:45:24.901Z,98878.9
2022-07-27T02:50:59.531Z,98874.1
2022-07-27T02:56:36.873Z,98866.9
2022-07-27T03:02:11.864Z,98863.9
2022-07-27T03:07:47.539Z,98851.9
2022-07-27T03:13:22.551Z,98850.8
2022-07-27T03:19:19.398Z,98841.4
2022-07-27T03:24:52.165Z,98839.2
2022-07-27T03:30:26.911Z,98829.4
2022-07-27T03:36:01.770Z,98822.4
2022-07-27T03:41:37.541Z,98817.2
2022-07-27T03:47:12.437Z,98810.1
2022-07-27T03:52:47.095Z,98805
2022-07-27T03:58:21.916Z,98795.9
2022-07-27T04:03:58.190Z,98794.1
2022-07-27T04:09:32.847Z,98796.1
2022-07-27T04:15:07.637Z,98796.3
2022-07-27T04:20:42.563Z,98796.4
2022-07-27T04:26:18.460Z,98799.8
2022-07-27T04:31:53.647Z,98801.3
2022-07-27T04:37:28.421Z,98805
2022-07-27T04:43:04.364Z,98804.7
2022-07-27T04:48:49.799Z,98806.1
2022-07-27T04:54:25.188Z,98808.5
2022-07-27T04:59:59.872Z,98810.9
2022-07-27T05:05:35.079Z,98815.7
2022-07-27T05:11:09.888Z,98817.3
2022-07-27T05:17:07.058Z,98820.5
2022-07-27T05:22:40.710Z,98813.4
2022-07-27T05:28:15.749Z,98812.7
2022-07-27T05:33:59.124Z,98808.9
2022-07-27T05:39:34.927Z,98804.5
2022-07-27T05:45:09.623Z,98808.2
2022-07-27T05:50:44.861Z,98807.9
2022-07-27T05:56:19.851Z,98806.2
2022-07-27T06:01:55.630Z,98810.5
2022-07-27T06:07:30.414Z,98811.8
2022-07-27T06:13:06.408Z,98806.9
2022-07-27T06:19:03.136Z,98806.6
2022-07-27T06:24:35.944Z,98810.4
2022-07-27T06:30:12.049Z,98809.6
2022-07-27T06:35:47.667Z,98807.8
2022-07-27T06:41:24.186Z,98805.4
2022-07-27T06:47:00.016Z,98805.7
2022-07-27T06:52:35.649Z,98805.2
2022-07-27T06:58:10.676Z,98808.9
2022-07-27T07:03:46.741Z,98811.6
2022-07-27T07:09:22.246Z,98805.2
2022-07-27T07:15:00.688Z,98804.9
2022-07-27T07:20:35.373Z,98808.3
2022-07-27T07:26:18.346Z,98811.7
2022-07-27T07:31:53.941Z,98811.9
2022-07-27T07:37:34.546Z,98813.2
2022-07-27T07:43:09.475Z,98819.1
2022-07-27T07:48:44.592Z,98822.9
2022-07-27T07:54:21.065Z,98810
2022-07-27T07:59:55.972Z,98806.5
2022-07-27T08:05:30.885Z,98801
2022-07-27T08:11:07.666Z,98803.3
2022-07-27T08:17:04.738Z,98797.1
2022-07-27T08:22:40.148Z,98795.8
2022-07-27T08:28:19.356Z,98797.7
2022-07-27T08:33:56.408Z,98794.2
2022-07-27T08:40:47.109Z,98791.4
2022-07-27T08:46:29.079Z,98791.3
2022-07-27T08:52:04.484Z,98787.7
2022-07-27T08:58:03.319Z,98781.7
2022-07-27T09:03:40.041Z,98783
2022-07-27T09:09:16.871Z,98782.9
2022-07-27T09:14:53.855Z,98782.3
2022-07-27T09:20:29.543Z,98779.1
2022-07-27T09:26:33.494Z,98779.1
2022-07-27T09:32:10.243Z,98779.5
2022-07-27T09:37:45.180Z,98780
2022-07-27T09:44:35.008Z,98787.3
2022-07-27T09:50:36.440Z,98788.9
2022-07-27T09:56:11.593Z,98791.7
2022-07-27T10:01:55.507Z,98787
2022-07-27T10:07:31.085Z,98783.1
2022-07-27T10:13:06.011Z,98778.1
2022-07-27T10:19:09.206Z,98772.7
2022-07-27T10:24:42.102Z,98768.9
2022-07-27T10:30:28.302Z,98772.4
2022-07-27T10:36:03.399Z,98766.3
2022-07-27T10:41:38.159Z,98764.2
2022-07-27T10:47:13.034Z,98757.4
2022-07-27T10:52:47.689Z,98756.8
2022-07-27T10:58:23.592Z,98748.6
2022-07-27T11:03:58.816Z,98746.6
2022-07-27T11:10:05.959Z,98743.5
2022-07-27T11:15:41.156Z,98744.2
2022-07-27T11:21:27.118Z,98740.5
2022-07-27T11:27:23.540Z,98738.2
2022-07-27T11:33:00.485Z,98728.3
2022-07-27T11:38:35.226Z,98725.9
2022-07-27T11:44:14.538Z,98729.1
2022-07-27T11:49:53.558Z,98719.7
2022-07-27T11:55:30.395Z,98715.2
2022-07-27T12:01:05.224Z,98702.5
2022-07-27T12:06:40.947Z,98701.4
2022-07-27T12:12:15.806Z,98692.8
2022-07-27T12:18:12.541Z,98681
2022-07-27T12:23:45.228Z,98669.4
2022-07-27T12:29:20.909Z,98669.7
2022-07-27T12:34:55.754Z,98662
2022-07-27T12:40:31.551Z,98661.1
2022-07-27T12:46:07.200Z,98662.1
2022-07-27T12:51:42.670Z,98655.9
2022-07-27T12:57:57.167Z,98653.7
2022-07-27T13:03:32.593Z,98650.5
2022-07-27T13:09:07.316Z,98642
2022-07-27T13:14:43.949Z,98633.7
2022-07-27T13:20:18.909Z,98626.7
2022-07-27T13:25:53.872Z,98625.5
2022-07-27T13:31:29.001Z,98611.3
2022-07-27T13:37:04.757Z,98605.2
2022-07-27T13:42:39.672Z,98603.4
2022-07-27T13:48:14.564Z,98592.4
2022-07-27T13:53:50.469Z,98587.8
2022-07-27T13:59:25.220Z,98585.3
2022-07-27T14:05:06.283Z,98589.7
2022-07-27T14:10:44.318Z,98585.9
2022-07-27T14:16:41.744Z,98581.6
2022-07-27T14:22:15.254Z,98571.6
2022-07-27T14:27:50.186Z,98573.9
2022-07-27T14:33:24.900Z,98568
2022-07-27T14:39:20.906Z,98566.8
2022-07-27T14:44:55.891Z,98559
2022-07-27T14:50:30.748Z,98549.5
2022-07-27T14:56:06.649Z,98544.7
2022-07-27T15:01:43.667Z,98534.4
2022-07-27T15:07:20.633Z,98529.4
2022-07-27T15:12:56.714Z,98531
2022-07-27T15:18:53.373Z,98521.6
2022-07-27T15:24:26.219Z,98512.3
2022-07-27T15:30:02.912Z,98505.1
2022-07-27T15:35:39.640Z,98499.7
2022-07-27T15:41:14.467Z,98495.3
2022-07-27T15:46:50.273Z,98491.3
2022-07-27T15:52:25.729Z,98490.2
2022-07-27T15:58:00.862Z,98492
2022-07-27T16:03:36.953Z,98482.7
2022-07-27T16:09:16.861Z,98483.9
2022-07-27T16:14:52.602Z,98476.8
2022-07-27T16:20:28.644Z,98461.2
2022-07-27T16:26:08.052Z,98453.2
2022-07-27T16:31:43.849Z,98449.4
2022-07-27T16:37:20.504Z,98437.8
2022-07-27T16:42:55.355Z,98429.9
2022-07-27T16:48:43.339Z,98429.1
2022-07-27T16:54:21.980Z,98423.1
2022-07-27T16:59:56.854Z,98414.3
2022-07-27T17:05:31.871Z,98412.2
2022-07-27T17:11:10.818Z,98408.8
2022-07-27T17:17:07.540Z,98405.6
2022-07-27T17:22:40.257Z,98402.3
2022-07-27T17:28:16.048Z,98406.3
2022-07-27T17:33:51.752Z,98413.5
2022-07-27T17:39:26.508Z,98426.9
2022-07-27T17:45:01.136Z,98429.4
2022-07-27T17:50:36.062Z,98428.5
2022-07-27T17:56:10.814Z,98423.9
2022-07-27T18:01:49.399Z,98429.5
2022-07-27T18:07:25.024Z,98430.9
2022-07-27T18:12:59.707Z,98437.8
2022-07-27T18:18:56.218Z,98439.3
2022-07-27T18:24:29.040Z,98439.6
2022-07-27T18:30:03.653Z,98442.4
2022-07-27T18:35:38.442Z,98439
2022-07-27T18:41:14.550Z,98444.9
2022-07-27T18:46:49.325Z,98442.5
2022-07-27T18:52:24.635Z,98451.2
2022-07-27T18:57:59.387Z,98452.6
2022-07-27T19:03:34.950Z,98456.2
2022-07-27T19:09:12.012Z,98453
2022-07-27T19:14:51.559Z,98459.4
2022-07-27T19:20:26.255Z,98465.2
2022-07-27T19:26:01.194Z,98467.7
2022-07-27T19:31:35.809Z,98469.4
2022-07-27T19:37:11.481Z,98471.9
2022-07-27T19:42:46.209Z,98478.7
2022-07-27T19:48:22.107Z,98485.3
2022-07-27T19:53:57.923Z,98489.1
2022-07-27T19:59:57.420Z,98498
2022-07-27T20:05:33.299Z,98509.1
2022-07-27T20:11:08.212Z,98516.2
2022-07-27T20:16:43.593Z,98519
2022-07-27T20:22:19.599Z,98540.3
2022-07-27T20:27:54.266Z,98548.5
2022-07-27T20:33:33.304Z,98561.9
2022-07-27T20:39:18.505Z,98572.8
2022-07-27T20:44:55.982Z,98575.9
2022-07-27T20:50:30.920Z,98581.3
2022-07-27T20:56:06.923Z,98589.9
2022-07-27T21:01:42.192Z,98581.5
2022-07-27T21:07:17.670Z,98591.9
2022-07-27T21:12:53.430Z,98593.8
2022-07-27T21:18:49.947Z,98595.4
2022-07-27T21:24:24.013Z,98604.2
2022-07-27T21:29:59.723Z,98606.5
2022-07-27T21:35:34.377Z,98602.2
2022-07-27T21:41:09.398Z,98603.9
2022-07-27T21:46:44.197Z,98604.6
2022-07-27T21:52:19.037Z,98604
2022-07-27T21:57:53.872Z,98607.1
2022-07-27T22:03:28.749Z,98610.4
2022-07-27T22:09:03.974Z,98611.1
2022-07-27T22:14:39.368Z,98607.3
2022-07-27T22:20:16.665Z,98609.3
2022-07-27T22:25:51.583Z,98601.1
2022-07-27T22:31:26.758Z,98603.4
2022-07-27T22:37:02.548Z,98597.8
2022-07-27T22:42:37.791Z,98599.6
2022-07-27T22:48:14.408Z,98593.4
2022-07-27T22:53:49.491Z,98590.8
2022-07-27T22:59:24.165Z,98594.3
2022-07-27T23:04:59.226Z,98597.9
2022-07-27T23:10:35.044Z,98593
2022-07-27T23:16:32.585Z,98593.8
2022-07-27T23:22:12.010Z,98588.9
2022-07-27T23:27:55.871Z,98582.2
2022-07-27T23:33:30.988Z,98586.4
2022-07-27T23:39:05.697Z,98584.6
2022-07-27T23:44:41.455Z,98582.3
2022-07-27T23:50:16.139Z,98582.5
2022-07-27T23:55:51.235Z,98586.4
